Bluewater, New Mexico
Current Conditions -  °F | °C
As of 1:55 PM on Thursday 18 Dec 2014 (Local Time) from KGNT Reporting Station
Overcast Overcast  
Wind Chill: 32°   Ceiling: 7500
Heat Index: 37°   Visibility: 10mi
Dew Point: 25°   Wind: 6mph
Humidity: 63%   Direction: 340°NNW
Pressure: 30.1"   Gusts: 17mph
Location:  35.26°N, 107.99°W
Report Text: KGNT 182055Z AUTO 34005G15KT 10SM SCT045 OVC075 03/M04 A3010 RMK AO2 LTG DSNT S T00261039
Loading
Personal Weather Stations






























Interactive Weather Map New forecast layout! Learn more

10-Day Weather Forecast

Advertisements
Track Severe Weather on mobile